sensor_id;sensor_type;location;lat;lon;timestamp;temperature;humidity
16273;DHT22;8244;50.044;9.006;2023-03-29T00:04:21;6.40;99.90
16273;DHT22;8244;50.044;9.006;2023-03-29T00:09:23;6.40;99.90
16273;DHT22;8244;50.044;9.006;2023-03-29T00:14:28;6.40;99.90
16273;DHT22;8244;50.044;9.006;2023-03-29T00:19:30;6.40;99.90
16273;DHT22;8244;50.044;9.006;2023-03-29T00:24:35;6.40;99.90
16273;DHT22;8244;50.044;9.006;2023-03-29T00:29:38;6.30;99.90
16273;DHT22;8244;50.044;9.006;2023-03-29T00:34:39;6.30;99.90
16273;DHT22;8244;50.044;9.006;2023-03-29T00:39:45;6.30;99.90
16273;DHT22;8244;50.044;9.006;2023-03-29T00:44:58;6.30;99.90
16273;DHT22;8244;50.044;9.006;2023-03-29T00:50:03;6.20;99.90
16273;DHT22;8244;50.044;9.006;2023-03-29T00:55:10;6.30;99.90
16273;DHT22;8244;50.044;9.006;2023-03-29T01:00:16;6.20;99.90
16273;DHT22;8244;50.044;9.006;2023-03-29T01:05:24;6.20;99.90
16273;DHT22;8244;50.044;9.006;2023-03-29T01:10:33;6.20;99.90
16273;DHT22;8244;50.044;9.006;2023-03-29T01:15:40;6.20;99.90
16273;DHT22;8244;50.044;9.006;2023-03-29T01:26:13;6.10;99.90
16273;DHT22;8244;50.044;9.006;2023-03-29T01:31:20;6.10;99.90
16273;DHT22;8244;50.044;9.006;2023-03-29T01:36:26;6.10;99.90
16273;DHT22;8244;50.044;9.006;2023-03-29T01:41:39;6.10;99.90
16273;DHT22;8244;50.044;9.006;2023-03-29T01:46:45;6.00;99.90
16273;DHT22;8244;50.044;9.006;2023-03-29T01:51:52;6.10;99.90
16273;DHT22;8244;50.044;9.006;2023-03-29T01:56:56;6.10;99.90
16273;DHT22;8244;50.044;9.006;2023-03-29T02:02:01;6.00;99.90
16273;DHT22;8244;50.044;9.006;2023-03-29T02:07:06;6.10;99.90
16273;DHT22;8244;50.044;9.006;2023-03-29T02:12:09;6.00;99.90
16273;DHT22;8244;50.044;9.006;2023-03-29T02:17:18;6.00;99.90
16273;DHT22;8244;50.044;9.006;2023-03-29T02:22:23;6.00;99.90
16273;DHT22;8244;50.044;9.006;2023-03-29T02:27:28;6.00;99.90
16273;DHT22;8244;50.044;9.006;2023-03-29T02:32:35;6.00;99.90
16273;DHT22;8244;50.044;9.006;2023-03-29T02:37:43;6.00;99.90
16273;DHT22;8244;50.044;9.006;2023-03-29T02:42:48;6.00;99.90
16273;DHT22;8244;50.044;9.006;2023-03-29T02:47:54;6.00;99.90
16273;DHT22;8244;50.044;9.006;2023-03-29T02:52:59;6.00;99.90
16273;DHT22;8244;50.044;9.006;2023-03-29T02:58:02;5.90;99.90
16273;DHT22;8244;50.044;9.006;2023-03-29T03:03:09;6.00;99.90
16273;DHT22;8244;50.044;9.006;2023-03-29T03:08:11;5.90;99.90
16273;DHT22;8244;50.044;9.006;2023-03-29T03:13:13;5.90;99.90
16273;DHT22;8244;50.044;9.006;2023-03-29T03:18:16;5.90;99.90
16273;DHT22;8244;50.044;9.006;2023-03-29T03:23:18;5.90;99.90
16273;DHT22;8244;50.044;9.006;2023-03-29T03:28:20;5.90;99.90
16273;DHT22;8244;50.044;9.006;2023-03-29T03:33:24;6.00;99.90
16273;DHT22;8244;50.044;9.006;2023-03-29T03:38:27;6.00;99.90
16273;DHT22;8244;50.044;9.006;2023-03-29T03:43:29;6.00;99.90
16273;DHT22;8244;50.044;9.006;2023-03-29T03:48:32;6.00;99.90
16273;DHT22;8244;50.044;9.006;2023-03-29T03:53:34;6.00;99.90
16273;DHT22;8244;50.044;9.006;2023-03-29T03:58:35;6.00;99.90
16273;DHT22;8244;50.044;9.006;2023-03-29T04:03:38;6.00;99.90
16273;DHT22;8244;50.044;9.006;2023-03-29T04:08:40;6.00;99.90
16273;DHT22;8244;50.044;9.006;2023-03-29T04:13:42;6.00;99.90
16273;DHT22;8244;50.044;9.006;2023-03-29T04:18:45;6.00;99.90
16273;DHT22;8244;50.044;9.006;2023-03-29T04:23:47;6.00;99.90
16273;DHT22;8244;50.044;9.006;2023-03-29T04:28:49;6.00;99.90
16273;DHT22;8244;50.044;9.006;2023-03-29T04:33:52;6.00;99.90
16273;DHT22;8244;50.044;9.006;2023-03-29T04:38:53;6.00;99.90
16273;DHT22;8244;50.044;9.006;2023-03-29T04:43:55;5.90;99.90
16273;DHT22;8244;50.044;9.006;2023-03-29T04:48:58;5.90;99.90
16273;DHT22;8244;50.044;9.006;2023-03-29T04:53:59;5.90;99.90
16273;DHT22;8244;50.044;9.006;2023-03-29T04:59:01;5.90;99.90
16273;DHT22;8244;50.044;9.006;2023-03-29T05:04:04;5.90;99.90
16273;DHT22;8244;50.044;9.006;2023-03-29T05:09:06;6.00;99.90
16273;DHT22;8244;50.044;9.006;2023-03-29T05:14:10;6.00;99.90
16273;DHT22;8244;50.044;9.006;2023-03-29T05:19:13;6.10;99.90
16273;DHT22;8244;50.044;9.006;2023-03-29T05:24:14;6.10;99.90
16273;DHT22;8244;50.044;9.006;2023-03-29T05:29:17;6.10;99.90
16273;DHT22;8244;50.044;9.006;2023-03-29T05:34:20;6.10;99.90
16273;DHT22;8244;50.044;9.006;2023-03-29T05:39:21;6.20;99.90
16273;DHT22;8244;50.044;9.006;2023-03-29T05:44:23;6.20;99.90
16273;DHT22;8244;50.044;9.006;2023-03-29T05:49:26;6.30;99.90
16273;DHT22;8244;50.044;9.006;2023-03-29T05:54:28;6.40;99.90
16273;DHT22;8244;50.044;9.006;2023-03-29T05:59:30;6.40;99.90
16273;DHT22;8244;50.044;9.006;2023-03-29T06:04:33;6.50;99.90
16273;DHT22;8244;50.044;9.006;2023-03-29T06:09:35;6.60;99.90
16273;DHT22;8244;50.044;9.006;2023-03-29T06:14:38;6.70;99.90
16273;DHT22;8244;50.044;9.006;2023-03-29T06:19:41;6.80;99.90
16273;DHT22;8244;50.044;9.006;2023-03-29T06:24:43;6.90;99.90
16273;DHT22;8244;50.044;9.006;2023-03-29T06:29:45;7.00;99.90
16273;DHT22;8244;50.044;9.006;2023-03-29T06:34:48;7.10;99.90
16273;DHT22;8244;50.044;9.006;2023-03-29T06:39:50;7.20;99.90
16273;DHT22;8244;50.044;9.006;2023-03-29T06:44:53;7.40;99.90
16273;DHT22;8244;50.044;9.006;2023-03-29T06:49:56;7.50;99.90
16273;DHT22;8244;50.044;9.006;2023-03-29T06:54:57;7.70;99.90
16273;DHT22;8244;50.044;9.006;2023-03-29T07:00:01;7.80;99.90
16273;DHT22;8244;50.044;9.006;2023-03-29T07:05:15;8.00;99.90
16273;DHT22;8244;50.044;9.006;2023-03-29T07:10:16;8.20;99.90
16273;DHT22;8244;50.044;9.006;2023-03-29T07:15:18;8.40;99.90
16273;DHT22;8244;50.044;9.006;2023-03-29T07:20:22;8.70;99.90
16273;DHT22;8244;50.044;9.006;2023-03-29T07:25:25;9.10;99.90
16273;DHT22;8244;50.044;9.006;2023-03-29T07:30:30;9.40;99.90
16273;DHT22;8244;50.044;9.006;2023-03-29T07:35:33;9.60;99.90
16273;DHT22;8244;50.044;9.006;2023-03-29T07:40:35;9.90;99.90
16273;DHT22;8244;50.044;9.006;2023-03-29T07:45:37;10.00;99.90
16273;DHT22;8244;50.044;9.006;2023-03-29T07:50:41;10.20;99.90
16273;DHT22;8244;50.044;9.006;2023-03-29T07:55:43;10.40;99.90
16273;DHT22;8244;50.044;9.006;2023-03-29T08:00:48;10.50;99.90
16273;DHT22;8244;50.044;9.006;2023-03-29T08:05:51;10.70;99.90
16273;DHT22;8244;50.044;9.006;2023-03-29T08:10:53;10.90;99.90
16273;DHT22;8244;50.044;9.006;2023-03-29T08:15:55;11.10;99.90
16273;DHT22;8244;50.044;9.006;2023-03-29T08:20:59;11.10;99.90
16273;DHT22;8244;50.044;9.006;2023-03-29T08:26:01;11.30;99.90
16273;DHT22;8244;50.044;9.006;2023-03-29T08:31:03;11.30;99.90
16273;DHT22;8244;50.044;9.006;2023-03-29T08:36:06;11.40;99.90
16273;DHT22;8244;50.044;9.006;2023-03-29T08:41:21;11.60;99.90
16273;DHT22;8244;50.044;9.006;2023-03-29T08:46:31;11.80;99.90
16273;DHT22;8244;50.044;9.006;2023-03-29T08:51:41;12.00;99.90
16273;DHT22;8244;50.044;9.006;2023-03-29T08:56:44;12.20;99.90
16273;DHT22;8244;50.044;9.006;2023-03-29T09:01:48;12.20;99.90
16273;DHT22;8244;50.044;9.006;2023-03-29T09:06:54;12.20;99.90
16273;DHT22;8244;50.044;9.006;2023-03-29T09:12:09;12.50;99.90
16273;DHT22;8244;50.044;9.006;2023-03-29T09:17:19;12.80;99.90
16273;DHT22;8244;50.044;9.006;2023-03-29T09:22:30;13.20;99.90
16273;DHT22;8244;50.044;9.006;2023-03-29T09:27:38;13.60;99.90
16273;DHT22;8244;50.044;9.006;2023-03-29T09:32:50;14.00;99.90
16273;DHT22;8244;50.044;9.006;2023-03-29T09:37:54;14.30;97.60
16273;DHT22;8244;50.044;9.006;2023-03-29T09:42:57;14.20;98.20
16273;DHT22;8244;50.044;9.006;2023-03-29T09:48:05;14.50;98.40
16273;DHT22;8244;50.044;9.006;2023-03-29T09:53:13;14.70;95.70
16273;DHT22;8244;50.044;9.006;2023-03-29T09:58:16;14.90;95.30
16273;DHT22;8244;50.044;9.006;2023-03-29T10:03:19;15.10;96.40
16273;DHT22;8244;50.044;9.006;2023-03-29T10:08:27;15.70;94.80
16273;DHT22;8244;50.044;9.006;2023-03-29T10:13:30;16.00;92.30
16273;DHT22;8244;50.044;9.006;2023-03-29T10:18:38;16.10;93.30
16273;DHT22;8244;50.044;9.006;2023-03-29T10:23:42;16.30;92.40
16273;DHT22;8244;50.044;9.006;2023-03-29T10:28:44;16.30;91.20
16273;DHT22;8244;50.044;9.006;2023-03-29T10:33:50;16.40;91.40
16273;DHT22;8244;50.044;9.006;2023-03-29T10:38:56;16.50;91.60
16273;DHT22;8244;50.044;9.006;2023-03-29T10:43:59;16.70;91.20
16273;DHT22;8244;50.044;9.006;2023-03-29T10:49:03;16.70;90.00
16273;DHT22;8244;50.044;9.006;2023-03-29T10:54:13;16.90;90.90
16273;DHT22;8244;50.044;9.006;2023-03-29T10:59:23;17.30;90.30
16273;DHT22;8244;50.044;9.006;2023-03-29T11:04:33;17.50;90.60
16273;DHT22;8244;50.044;9.006;2023-03-29T11:09:45;17.90;89.20
16273;DHT22;8244;50.044;9.006;2023-03-29T11:14:58;18.00;87.80
16273;DHT22;8244;50.044;9.006;2023-03-29T11:20:26;18.10;89.10
16273;DHT22;8244;50.044;9.006;2023-03-29T11:25:39;18.20;87.40
16273;DHT22;8244;50.044;9.006;2023-03-29T11:30:47;18.20;87.20
16273;DHT22;8244;50.044;9.006;2023-03-29T11:35:56;18.40;89.70
16273;DHT22;8244;50.044;9.006;2023-03-29T11:41:10;18.60;87.80
16273;DHT22;8244;50.044;9.006;2023-03-29T11:46:16;18.60;86.60
16273;DHT22;8244;50.044;9.006;2023-03-29T11:51:23;18.80;84.70
16273;DHT22;8244;50.044;9.006;2023-03-29T11:56:31;18.90;88.00
16273;DHT22;8244;50.044;9.006;2023-03-29T12:01:38;19.30;87.90
16273;DHT22;8244;50.044;9.006;2023-03-29T12:06:46;19.60;87.00
16273;DHT22;8244;50.044;9.006;2023-03-29T12:11:56;19.60;86.10
16273;DHT22;8244;50.044;9.006;2023-03-29T12:17:02;19.90;86.90
16273;DHT22;8244;50.044;9.006;2023-03-29T12:22:05;19.90;86.30
16273;DHT22;8244;50.044;9.006;2023-03-29T12:27:27;20.00;88.10
16273;DHT22;8244;50.044;9.006;2023-03-29T12:32:38;20.20;83.60
16273;DHT22;8244;50.044;9.006;2023-03-29T12:37:46;20.10;85.60
16273;DHT22;8244;50.044;9.006;2023-03-29T12:42:58;20.20;86.90
16273;DHT22;8244;50.044;9.006;2023-03-29T12:48:02;20.10;86.10
16273;DHT22;8244;50.044;9.006;2023-03-29T12:53:06;20.10;88.20
16273;DHT22;8244;50.044;9.006;2023-03-29T12:58:27;20.40;86.80
16273;DHT22;8244;50.044;9.006;2023-03-29T13:03:45;20.70;86.60
16273;DHT22;8244;50.044;9.006;2023-03-29T13:08:56;20.90;84.90
16273;DHT22;8244;50.044;9.006;2023-03-29T13:14:02;21.00;83.40
16273;DHT22;8244;50.044;9.006;2023-03-29T13:19:17;20.90;84.10
16273;DHT22;8244;50.044;9.006;2023-03-29T13:24:39;20.40;89.30
16273;DHT22;8244;50.044;9.006;2023-03-29T13:29:53;20.50;87.60
16273;DHT22;8244;50.044;9.006;2023-03-29T13:35:00;20.80;88.00
16273;DHT22;8244;50.044;9.006;2023-03-29T13:40:23;20.90;86.10
16273;DHT22;8244;50.044;9.006;2023-03-29T13:45:28;20.50;86.10
16273;DHT22;8244;50.044;9.006;2023-03-29T13:50:35;20.40;85.00
16273;DHT22;8244;50.044;9.006;2023-03-29T13:55:43;20.10;84.50
16273;DHT22;8244;50.044;9.006;2023-03-29T14:00:49;20.00;86.30
16273;DHT22;8244;50.044;9.006;2023-03-29T14:05:56;20.00;88.20
16273;DHT22;8244;50.044;9.006;2023-03-29T14:10:59;20.10;85.90
16273;DHT22;8244;50.044;9.006;2023-03-29T14:16:07;20.20;87.90
16273;DHT22;8244;50.044;9.006;2023-03-29T14:21:10;20.40;84.20
16273;DHT22;8244;50.044;9.006;2023-03-29T14:26:15;20.10;87.10
16273;DHT22;8244;50.044;9.006;2023-03-29T14:31:21;20.00;85.50
16273;DHT22;8244;50.044;9.006;2023-03-29T14:36:23;20.00;86.10
16273;DHT22;8244;50.044;9.006;2023-03-29T14:41:28;19.80;85.90
16273;DHT22;8244;50.044;9.006;2023-03-29T14:46:32;19.70;86.60
16273;DHT22;8244;50.044;9.006;2023-03-29T14:51:34;19.80;86.60
16273;DHT22;8244;50.044;9.006;2023-03-29T14:56:36;19.80;84.90
16273;DHT22;8244;50.044;9.006;2023-03-29T15:01:43;19.60;85.90
16273;DHT22;8244;50.044;9.006;2023-03-29T15:06:45;19.70;87.20
16273;DHT22;8244;50.044;9.006;2023-03-29T15:11:51;19.60;84.60
16273;DHT22;8244;50.044;9.006;2023-03-29T15:16:57;19.40;85.50
16273;DHT22;8244;50.044;9.006;2023-03-29T15:22:02;19.40;85.40
16273;DHT22;8244;50.044;9.006;2023-03-29T15:27:13;19.50;86.20
16273;DHT22;8244;50.044;9.006;2023-03-29T15:32:32;19.30;85.30
16273;DHT22;8244;50.044;9.006;2023-03-29T15:37:35;19.30;85.20
16273;DHT22;8244;50.044;9.006;2023-03-29T15:42:37;19.10;85.40
16273;DHT22;8244;50.044;9.006;2023-03-29T15:47:40;19.00;86.20
16273;DHT22;8244;50.044;9.006;2023-03-29T15:52:41;19.10;87.90
16273;DHT22;8244;50.044;9.006;2023-03-29T15:57:45;19.00;86.10
16273;DHT22;8244;50.044;9.006;2023-03-29T16:02:49;18.90;88.70
16273;DHT22;8244;50.044;9.006;2023-03-29T16:07:51;19.00;86.90
16273;DHT22;8244;50.044;9.006;2023-03-29T16:12:52;19.00;89.00
16273;DHT22;8244;50.044;9.006;2023-03-29T16:17:55;18.90;87.70
16273;DHT22;8244;50.044;9.006;2023-03-29T16:22:57;18.70;88.00
16273;DHT22;8244;50.044;9.006;2023-03-29T16:27:59;18.60;88.40
16273;DHT22;8244;50.044;9.006;2023-03-29T16:33:02;18.50;89.00
16273;DHT22;8244;50.044;9.006;2023-03-29T16:38:07;18.40;90.00
16273;DHT22;8244;50.044;9.006;2023-03-29T16:43:13;18.30;90.30
16273;DHT22;8244;50.044;9.006;2023-03-29T16:48:17;18.20;90.40
16273;DHT22;8244;50.044;9.006;2023-03-29T16:53:19;18.00;90.60
16273;DHT22;8244;50.044;9.006;2023-03-29T16:58:23;17.80;91.00
16273;DHT22;8244;50.044;9.006;2023-03-29T17:03:26;17.70;91.10
16273;DHT22;8244;50.044;9.006;2023-03-29T17:08:27;17.50;91.40
16273;DHT22;8244;50.044;9.006;2023-03-29T17:13:29;17.30;91.90
16273;DHT22;8244;50.044;9.006;2023-03-29T17:18:33;17.10;92.30
16273;DHT22;8244;50.044;9.006;2023-03-29T17:23:35;17.00;92.70
16273;DHT22;8244;50.044;9.006;2023-03-29T17:28:36;16.80;92.90
16273;DHT22;8244;50.044;9.006;2023-03-29T17:33:39;16.70;93.30
16273;DHT22;8244;50.044;9.006;2023-03-29T17:38:41;16.60;93.40
16273;DHT22;8244;50.044;9.006;2023-03-29T17:43:43;16.50;93.80
16273;DHT22;8244;50.044;9.006;2023-03-29T17:48:46;16.40;94.00
16273;DHT22;8244;50.044;9.006;2023-03-29T17:53:50;16.30;95.50
16273;DHT22;8244;50.044;9.006;2023-03-29T17:58:52;16.20;95.70
16273;DHT22;8244;50.044;9.006;2023-03-29T18:03:55;16.00;95.90
16273;DHT22;8244;50.044;9.006;2023-03-29T18:08:57;15.90;96.30
16273;DHT22;8244;50.044;9.006;2023-03-29T18:14:01;15.80;96.60
16273;DHT22;8244;50.044;9.006;2023-03-29T18:19:05;15.60;97.00
16273;DHT22;8244;50.044;9.006;2023-03-29T18:24:07;15.40;97.30
16273;DHT22;8244;50.044;9.006;2023-03-29T18:29:08;15.30;97.70
16273;DHT22;8244;50.044;9.006;2023-03-29T18:34:11;15.20;98.40
16273;DHT22;8244;50.044;9.006;2023-03-29T18:39:13;15.00;99.10
16273;DHT22;8244;50.044;9.006;2023-03-29T18:44:15;14.90;99.90
16273;DHT22;8244;50.044;9.006;2023-03-29T18:49:18;14.80;99.90
16273;DHT22;8244;50.044;9.006;2023-03-29T18:54:20;14.70;99.90
16273;DHT22;8244;50.044;9.006;2023-03-29T18:59:22;14.60;99.90
16273;DHT22;8244;50.044;9.006;2023-03-29T19:04:25;14.50;99.90
16273;DHT22;8244;50.044;9.006;2023-03-29T19:09:28;14.40;99.90
16273;DHT22;8244;50.044;9.006;2023-03-29T19:14:30;14.30;99.90
16273;DHT22;8244;50.044;9.006;2023-03-29T19:19:33;14.20;99.90
16273;DHT22;8244;50.044;9.006;2023-03-29T19:24:34;14.10;99.90
16273;DHT22;8244;50.044;9.006;2023-03-29T19:29:36;14.10;99.90
16273;DHT22;8244;50.044;9.006;2023-03-29T19:34:39;14.00;99.90
16273;DHT22;8244;50.044;9.006;2023-03-29T19:39:41;14.00;99.90
16273;DHT22;8244;50.044;9.006;2023-03-29T19:44:43;13.90;99.90
16273;DHT22;8244;50.044;9.006;2023-03-29T19:49:46;13.80;99.90
16273;DHT22;8244;50.044;9.006;2023-03-29T19:54:47;13.70;99.90
16273;DHT22;8244;50.044;9.006;2023-03-29T19:59:49;13.60;99.90
16273;DHT22;8244;50.044;9.006;2023-03-29T20:04:53;13.60;99.90
16273;DHT22;8244;50.044;9.006;2023-03-29T20:09:57;13.50;99.90
16273;DHT22;8244;50.044;9.006;2023-03-29T20:14:58;13.40;99.90
16273;DHT22;8244;50.044;9.006;2023-03-29T20:20:02;13.30;99.90
16273;DHT22;8244;50.044;9.006;2023-03-29T20:25:08;13.30;99.90
16273;DHT22;8244;50.044;9.006;2023-03-29T20:30:11;13.20;99.90
16273;DHT22;8244;50.044;9.006;2023-03-29T20:35:15;13.10;99.90
16273;DHT22;8244;50.044;9.006;2023-03-29T20:40:17;13.00;99.90
16273;DHT22;8244;50.044;9.006;2023-03-29T20:45:20;13.00;99.90
16273;DHT22;8244;50.044;9.006;2023-03-29T20:50:24;13.00;99.90
16273;DHT22;8244;50.044;9.006;2023-03-29T20:55:29;12.90;99.90
16273;DHT22;8244;50.044;9.006;2023-03-29T21:00:34;12.90;99.90
16273;DHT22;8244;50.044;9.006;2023-03-29T21:05:38;12.90;99.90
16273;DHT22;8244;50.044;9.006;2023-03-29T21:10:40;12.90;99.90
16273;DHT22;8244;50.044;9.006;2023-03-29T21:15:41;12.90;99.90
16273;DHT22;8244;50.044;9.006;2023-03-29T21:20:45;12.80;99.90
16273;DHT22;8244;50.044;9.006;2023-03-29T21:25:46;12.80;99.90
16273;DHT22;8244;50.044;9.006;2023-03-29T21:30:48;12.80;99.90
16273;DHT22;8244;50.044;9.006;2023-03-29T21:35:51;12.80;99.90
16273;DHT22;8244;50.044;9.006;2023-03-29T21:40:53;12.80;99.90
16273;DHT22;8244;50.044;9.006;2023-03-29T21:45:55;12.80;99.90
16273;DHT22;8244;50.044;9.006;2023-03-29T21:50:58;12.80;99.90
16273;DHT22;8244;50.044;9.006;2023-03-29T21:56:00;12.80;99.90
16273;DHT22;8244;50.044;9.006;2023-03-29T22:01:02;12.80;99.90
16273;DHT22;8244;50.044;9.006;2023-03-29T22:06:10;12.80;99.90
16273;DHT22;8244;50.044;9.006;2023-03-29T22:11:14;12.80;99.90
16273;DHT22;8244;50.044;9.006;2023-03-29T22:16:16;12.80;99.90
16273;DHT22;8244;50.044;9.006;2023-03-29T22:21:21;12.70;99.90
16273;DHT22;8244;50.044;9.006;2023-03-29T22:26:25;12.70;99.90
16273;DHT22;8244;50.044;9.006;2023-03-29T22:31:28;12.70;99.90
16273;DHT22;8244;50.044;9.006;2023-03-29T22:36:31;12.60;99.90
16273;DHT22;8244;50.044;9.006;2023-03-29T22:41:33;12.60;99.90
16273;DHT22;8244;50.044;9.006;2023-03-29T22:46:35;12.60;99.90
16273;DHT22;8244;50.044;9.006;2023-03-29T22:51:38;12.50;99.90
16273;DHT22;8244;50.044;9.006;2023-03-29T22:56:40;12.50;99.90
16273;DHT22;8244;50.044;9.006;2023-03-29T23:01:41;12.50;99.90
16273;DHT22;8244;50.044;9.006;2023-03-29T23:06:44;12.40;99.90
16273;DHT22;8244;50.044;9.006;2023-03-29T23:11:46;12.40;99.90
16273;DHT22;8244;50.044;9.006;2023-03-29T23:16:47;12.40;99.90
16273;DHT22;8244;50.044;9.006;2023-03-29T23:21:51;12.30;99.90
16273;DHT22;8244;50.044;9.006;2023-03-29T23:26:53;12.30;99.90
16273;DHT22;8244;50.044;9.006;2023-03-29T23:31:54;12.30;99.90
16273;DHT22;8244;50.044;9.006;2023-03-29T23:36:57;12.30;99.90
16273;DHT22;8244;50.044;9.006;2023-03-29T23:41:59;12.30;99.90
16273;DHT22;8244;50.044;9.006;2023-03-29T23:47:02;12.30;99.90
16273;DHT22;8244;50.044;9.006;2023-03-29T23:52:05;12.20;99.90
16273;DHT22;8244;50.044;9.006;2023-03-29T23:57:06;12.30;99.90
